Time;durP1;ratioP1;P1;durP2;ratioP2;P2;SDS_P1;SDS_P2;PMS_P1;PMS_P2;Temp;Humidity;BMP_temperature;BMP_pressure;BME280_temperature;BME280_humidity;BME280_pressure;Samples;Min_cycle;Max_cycle;Signal;HPM_P1;HPM_P2
2022/06/06 00:01:44;;;;;;;6.85;2.60;;;;;;;-142.25;100.00;58004.16;4993114;28;20038;-60
2022/06/06 00:04:10;;;;;;;9.07;4.85;;;;;;;-142.25;100.00;58004.16;4990249;28;20050;-60
2022/06/06 00:06:36;;;;;;;65.10;33.58;;;;;;;-142.25;100.00;58004.16;4988927;28;20080;-59
2022/06/06 00:09:02;;;;;;;4.60;3.08;;;;;;;-142.25;100.00;58004.16;4990366;28;20034;-60
2022/06/06 00:11:32;;;;;;;3.30;2.25;;;;;;;-142.25;100.00;58004.16;4990338;28;20026;-60
2022/06/06 00:13:57;;;;;;;3.10;2.50;;;;;;;-142.25;100.00;58004.16;4988783;28;20062;-60
2022/06/06 00:16:23;;;;;;;3.65;2.50;;;;;;;-142.25;100.00;58004.16;4989109;28;20137;-59
2022/06/06 00:18:49;;;;;;;3.17;2.30;;;;;;;-142.25;100.00;58004.16;4993774;28;20095;-60
2022/06/06 00:21:14;;;;;;;3.40;2.40;;;;;;;-142.25;100.00;58004.16;4992745;28;20034;-59
2022/06/06 00:23:40;;;;;;;3.60;3.30;;;;;;;-142.25;100.00;58004.16;4990059;28;20439;-59
2022/06/06 00:26:11;;;;;;;3.15;2.85;;;;;;;-142.25;100.00;58004.16;4989495;28;20038;-60
2022/06/06 00:28:39;;;;;;;4.32;2.50;;;;;;;-142.25;100.00;58004.16;5002228;28;20041;-59
2022/06/06 00:36:43;;;;;;;4.80;2.58;;;;;;;-142.25;100.00;58004.16;4986838;28;20518;-60
2022/06/06 00:39:14;;;;;;;4.70;2.80;;;;;;;-142.25;100.00;58004.16;4991944;28;20034;-61
2022/06/06 00:41:51;;;;;;;3.75;2.65;;;;;;;-142.25;100.00;58004.16;4990426;28;20453;-59
2022/06/06 00:44:31;;;;;;;2.85;2.63;;;;;;;-142.25;100.00;58004.16;4988847;28;20046;-60
2022/06/06 00:47:11;;;;;;;4.95;3.80;;;;;;;-142.25;100.00;58004.16;4987755;28;20052;-59
2022/06/06 00:50:02;;;;;;;5.10;2.80;;;;;;;-142.25;100.00;58004.16;4989114;28;20030;-59
2022/06/06 00:52:43;;;;;;;4.43;3.30;;;;;;;-142.25;100.00;58004.16;4989868;28;20105;-59
2022/06/06 00:55:30;;;;;;;4.78;2.95;;;;;;;-142.25;100.00;58004.16;4988054;28;20026;-59
2022/06/06 00:58:07;;;;;;;3.83;3.33;;;;;;;-142.25;100.00;58004.16;4987650;28;20539;-59
2022/06/06 01:00:52;;;;;;;3.75;2.90;;;;;;;-142.25;100.00;58004.16;4987852;28;20061;-59
2022/06/06 01:03:56;;;;;;;3.88;3.03;;;;;;;-142.25;100.00;58004.16;4988115;28;20088;-59
2022/06/06 01:07:06;;;;;;;4.65;3.30;;;;;;;-142.25;100.00;58004.16;4993336;28;20089;-59
2022/06/06 01:10:18;;;;;;;3.70;2.95;;;;;;;-142.25;100.00;58004.16;4989882;28;20045;-60
2022/06/06 01:13:22;;;;;;;5.55;3.08;;;;;;;-142.25;100.00;58004.16;4988260;28;20034;-60
2022/06/06 01:16:57;;;;;;;4.47;3.33;;;;;;;-142.25;100.00;58004.16;4988260;28;20034;-60
2022/06/06 01:20:33;;;;;;;4.70;3.65;;;;;;;-142.25;100.00;58004.16;4988993;28;20038;-60
2022/06/06 01:24:22;;;;;;;3.78;3.35;;;;;;;-142.25;100.00;58004.16;4989591;28;20081;-60
2022/06/06 01:27:51;;;;;;;4.13;3.15;;;;;;;-142.25;100.00;58004.16;4991172;28;20096;-60
2022/06/06 01:31:38;;;;;;;4.90;3.30;;;;;;;-142.25;100.00;58004.16;4993768;28;20034;-58
2022/06/06 01:35:04;;;;;;;5.07;3.03;;;;;;;-142.25;100.00;58004.16;4994717;28;20049;-59
2022/06/06 01:38:31;;;;;;;5.60;2.80;;;;;;;-142.25;100.00;58004.16;4993892;28;20669;-59
2022/06/06 01:42:13;;;;;;;3.90;3.10;;;;;;;-142.25;100.00;58004.16;4992057;28;20265;-59
2022/06/06 01:45:48;;;;;;;3.13;2.83;;;;;;;-142.25;100.00;58004.16;4997112;28;20054;-59
2022/06/06 01:49:08;;;;;;;3.35;3.03;;;;;;;-142.25;100.00;58004.16;4990879;28;20038;-59
2022/06/06 01:52:27;;;;;;;4.28;3.72;;;;;;;-142.25;100.00;58004.16;4994743;28;20045;-59
2022/06/06 01:55:51;;;;;;;3.95;3.60;;;;;;;-142.25;100.00;58004.16;4996132;28;20038;-60
2022/06/06 01:59:05;;;;;;;7.00;4.85;;;;;;;-142.25;100.00;58004.16;4992398;28;21053;-59
2022/06/06 02:02:24;;;;;;;6.15;4.05;;;;;;;-142.25;100.00;58004.16;4995676;28;20034;-59
2022/06/06 02:05:40;;;;;;;8.30;4.75;;;;;;;-142.25;100.00;58004.16;4995920;28;20038;-59
2022/06/06 02:08:56;;;;;;;4.25;3.85;;;;;;;-142.25;100.00;58004.16;4992370;28;20041;-58
2022/06/06 02:12:12;;;;;;;5.22;4.30;;;;;;;-142.25;100.00;58004.16;4996655;28;20078;-57
2022/06/06 02:15:36;;;;;;;6.50;4.18;;;;;;;-142.25;100.00;58004.16;4994894;28;20125;-58
2022/06/06 02:18:59;;;;;;;5.80;3.90;;;;;;;-142.25;100.00;58004.16;4992506;28;20050;-60
2022/06/06 02:22:23;;;;;;;6.20;4.05;;;;;;;-142.25;100.00;58004.16;4994825;28;20038;-59
2022/06/06 02:25:47;;;;;;;6.03;4.18;;;;;;;-142.25;100.00;58004.16;4993198;28;20911;-59
2022/06/06 02:29:11;;;;;;;5.90;4.07;;;;;;;-142.25;100.00;58004.16;4992025;28;20030;-58
2022/06/06 02:32:35;;;;;;;6.28;3.85;;;;;;;-142.25;100.00;58004.16;4993423;28;20034;-58
2022/06/06 02:36:00;;;;;;;8.10;7.25;;;;;;;-142.25;100.00;58004.16;4991988;28;20092;-59
2022/06/06 02:39:25;;;;;;;10.50;5.78;;;;;;;-142.25;100.00;58004.16;4995423;28;20034;-58
2022/06/06 02:42:49;;;;;;;12.15;6.03;;;;;;;-142.25;100.00;58004.16;4991937;28;20034;-60
2022/06/06 02:46:14;;;;;;;7.70;5.53;;;;;;;-142.25;100.00;58004.16;4991919;28;20088;-60
2022/06/06 02:49:38;;;;;;;9.15;6.57;;;;;;;-142.25;100.00;58004.16;4995861;28;20045;-60
2022/06/06 02:53:03;;;;;;;6.47;5.72;;;;;;;-142.25;100.00;58004.16;4994269;28;20026;-60
2022/06/06 02:56:27;;;;;;;10.15;6.40;;;;;;;-142.25;100.00;58004.16;4990992;28;20069;-58
2022/06/06 02:59:54;;;;;;;6.97;5.90;;;;;;;-142.25;100.00;58004.16;4996273;28;20042;-59
2022/06/06 03:03:18;;;;;;;7.20;6.47;;;;;;;-142.25;100.00;58004.16;4989383;28;20554;-60
2022/06/06 03:07:04;;;;;;;10.23;6.80;;;;;;;-142.25;100.00;58004.16;4989853;28;20046;-58
2022/06/06 03:10:39;;;;;;;7.15;5.90;;;;;;;-142.25;100.00;58004.16;4989691;28;20581;-59
2022/06/06 03:14:30;;;;;;;8.80;6.55;;;;;;;-142.25;100.00;58004.16;4990269;28;20064;-60
2022/06/06 03:22:18;;;;;;;5.20;4.55;;;;;;;-142.25;100.00;58004.16;4990215;28;20050;-59
2022/06/06 03:25:49;;;;;;;6.47;4.88;;;;;;;-142.25;100.00;58004.16;4994382;28;20064;-59
2022/06/06 03:29:32;;;;;;;4.63;4.20;;;;;;;-142.25;100.00;58004.16;4995053;28;20101;-59
2022/06/06 03:33:02;;;;;;;5.18;4.68;;;;;;;-142.25;100.00;58004.16;4991153;28;20042;-60
2022/06/06 03:36:38;;;;;;;6.68;5.40;;;;;;;-142.25;100.00;58004.16;4989886;28;20375;-59
2022/06/06 03:40:05;;;;;;;6.22;5.72;;;;;;;-142.25;100.00;58004.16;4991905;28;20109;-59
2022/06/06 03:43:47;;;;;;;8.63;5.57;;;;;;;-142.25;100.00;58004.16;4990340;28;20035;-59
2022/06/06 03:47:51;;;;;;;6.47;5.50;;;;;;;-142.25;100.00;58004.16;4991801;28;20141;-59
2022/06/06 03:51:33;;;;;;;6.10;5.38;;;;;;;-142.25;100.00;58004.16;4933145;28;20058;-59
2022/06/06 03:55:02;;;;;;;7.78;5.65;;;;;;;-142.25;100.00;58004.16;4936942;29;20560;-59
2022/06/06 03:58:28;;;;;;;8.18;6.60;;;;;;;-142.25;100.00;58004.16;4934323;29;20035;-59
2022/06/06 04:01:55;;;;;;;7.95;6.80;;;;;;;-142.25;100.00;58004.16;4932893;29;20043;-59
2022/06/06 04:05:22;;;;;;;8.30;6.32;;;;;;;-142.25;100.00;58004.16;4931666;28;20039;-59
2022/06/06 04:08:46;;;;;;;7.20;6.35;;;;;;;-142.25;100.00;58004.16;4932777;28;20387;-60
2022/06/06 04:12:15;;;;;;;6.28;5.68;;;;;;;-142.25;100.00;58004.16;4935713;28;20509;-59
2022/06/06 04:15:42;;;;;;;6.50;5.95;;;;;;;-142.25;100.00;58004.16;4935834;28;20055;-59
2022/06/06 04:19:30;;;;;;;6.82;6.18;;;;;;;-142.25;100.00;58004.16;4933103;28;20043;-59
2022/06/06 04:23:16;;;;;;;6.93;6.22;;;;;;;-142.25;100.00;58004.16;4935757;29;20202;-59
2022/06/06 04:26:52;;;;;;;7.25;6.47;;;;;;;-142.25;100.00;58004.16;4938705;28;20046;-59
2022/06/06 04:30:36;;;;;;;8.20;7.40;;;;;;;-142.25;100.00;58004.16;4988747;28;20034;-61
2022/06/06 04:34:28;;;;;;;7.65;6.93;;;;;;;-142.25;100.00;58004.16;4994928;28;20036;-60
2022/06/06 04:38:19;;;;;;;7.20;6.50;;;;;;;-142.25;100.00;58004.16;4988746;28;20030;-60
2022/06/06 04:41:55;;;;;;;6.95;6.35;;;;;;;-142.25;100.00;58004.16;5003701;28;20396;-59
2022/06/06 04:45:40;;;;;;;7.07;6.38;;;;;;;-142.25;100.00;58004.16;4992543;28;20034;-60
2022/06/06 04:49:04;;;;;;;7.00;6.30;;;;;;;-142.25;100.00;58004.16;4989718;28;20064;-59
2022/06/06 04:52:30;;;;;;;6.93;6.22;;;;;;;-142.25;100.00;58004.16;4991792;28;20038;-59
2022/06/06 04:55:56;;;;;;;6.57;6.00;;;;;;;-142.25;100.00;58004.16;4997434;28;20084;-60
2022/06/06 04:59:22;;;;;;;9.73;6.95;;;;;;;-142.25;100.00;58004.16;4991750;28;20142;-60
2022/06/06 05:02:47;;;;;;;7.78;6.97;;;;;;;-142.25;100.00;58004.16;4993992;28;20038;-60
2022/06/06 05:06:23;;;;;;;7.15;6.40;;;;;;;-142.25;100.00;58004.16;4990239;28;20045;-60
2022/06/06 05:10:14;;;;;;;9.43;8.55;;;;;;;-142.25;100.00;58004.16;4994201;28;20034;-60
2022/06/06 05:13:47;;;;;;;7.43;6.72;;;;;;;-142.25;100.00;58004.16;4991438;28;20042;-60
2022/06/06 05:17:32;;;;;;;6.38;5.93;;;;;;;-142.25;100.00;58004.16;4989917;28;20068;-60
2022/06/06 05:21:12;;;;;;;6.15;4.97;;;;;;;-142.25;100.00;58004.16;4994780;28;20042;-60
2022/06/06 05:24:55;;;;;;;5.30;4.90;;;;;;;-142.25;100.00;58004.16;4990891;28;20085;-60
2022/06/06 05:28:28;;;;;;;5.80;5.20;;;;;;;-142.25;100.00;58004.16;4994813;28;20129;-60
2022/06/06 05:32:11;;;;;;;6.47;5.65;;;;;;;-142.25;100.00;58004.16;4993160;28;20429;-60
2022/06/06 05:35:58;;;;;;;6.32;5.25;;;;;;;-142.25;100.00;58004.16;4988035;28;20060;-61
2022/06/06 05:39:42;;;;;;;4.97;4.50;;;;;;;-142.25;100.00;58004.16;4994739;28;20030;-60
2022/06/06 05:43:12;;;;;;;5.15;4.75;;;;;;;-142.25;100.00;58004.16;4989586;28;20156;-60
2022/06/06 05:46:54;;;;;;;5.75;5.25;;;;;;;-142.25;100.00;58004.16;4992374;28;20030;-60
2022/06/06 05:50:57;;;;;;;6.60;6.00;;;;;;;-142.25;100.00;58004.16;4992686;28;20046;-60
2022/06/06 05:54:59;;;;;;;5.85;5.35;;;;;;;-142.25;100.00;58004.16;4988917;28;20043;-60
2022/06/06 05:58:25;;;;;;;5.60;4.57;;;;;;;-142.25;100.00;58004.16;4992188;28;20041;-59
2022/06/06 06:02:11;;;;;;;5.18;4.80;;;;;;;-142.25;100.00;58004.16;4987176;28;20074;-58
2022/06/06 06:05:55;;;;;;;5.80;5.22;;;;;;;-142.25;100.00;58004.16;4988429;28;20550;-58
2022/06/06 06:09:42;;;;;;;6.53;5.35;;;;;;;-142.25;100.00;58004.16;4992374;28;20562;-60
2022/06/06 06:13:22;;;;;;;8.52;5.38;;;;;;;-142.25;100.00;58004.16;4989483;28;20064;-60
2022/06/06 06:16:50;;;;;;;6.43;4.75;;;;;;;-142.25;100.00;58004.16;4997671;28;20044;-60
2022/06/06 06:20:17;;;;;;;6.05;5.55;;;;;;;-142.25;100.00;58004.16;4991742;28;20061;-60
2022/06/06 06:24:03;;;;;;;5.28;4.45;;;;;;;-142.25;100.00;58004.16;4994037;28;20423;-60
2022/06/06 06:27:31;;;;;;;4.80;4.38;;;;;;;-142.25;100.00;58004.16;4995035;28;20053;-61
2022/06/06 06:31:00;;;;;;;5.05;4.65;;;;;;;-142.25;100.00;58004.16;4976339;28;20124;-60
2022/06/06 06:34:42;;;;;;;4.40;4.00;;;;;;;-142.25;100.00;58004.16;4996497;28;20057;-61
2022/06/06 06:38:23;;;;;;;5.10;3.83;;;;;;;-142.25;100.00;58004.16;5013783;28;20029;-60
2022/06/06 06:41:56;;;;;;;4.13;3.45;;;;;;;-142.25;100.00;58004.16;5011957;28;20069;-60
2022/06/06 06:45:43;;;;;;;5.45;4.05;;;;;;;-142.25;100.00;58004.16;5014743;28;20084;-60
2022/06/06 06:49:30;;;;;;;4.75;4.35;;;;;;;-142.25;100.00;58004.16;4996309;28;20049;-60
2022/06/06 06:53:04;;;;;;;3.60;3.30;;;;;;;-142.25;100.00;58004.16;5008937;28;20463;-63
2022/06/06 06:57:11;;;;;;;3.38;2.60;;;;;;;-142.25;100.00;58004.16;5008964;28;20073;-60
2022/06/06 07:00:47;;;;;;;3.83;2.85;;;;;;;-142.25;100.00;58004.16;5008158;28;20037;-61
2022/06/06 07:08:34;;;;;;;2.78;2.10;;;;;;;-142.25;100.00;58004.16;5009330;28;20822;-60
2022/06/06 07:12:25;;;;;;;2.38;1.85;;;;;;;-142.25;100.00;58004.16;5012495;28;20485;-60
2022/06/06 07:16:15;;;;;;;2.97;1.65;;;;;;;-142.25;100.00;58004.16;5009514;28;20030;-59
2022/06/06 07:20:00;;;;;;;1.80;1.70;;;;;;;-142.25;100.00;58004.16;5012037;28;20025;-61
2022/06/06 07:23:32;;;;;;;2.42;1.70;;;;;;;-142.25;100.00;58004.16;5012157;28;20515;-61
2022/06/06 07:26:56;;;;;;;2.60;1.63;;;;;;;-142.25;100.00;58004.16;5009422;28;20338;-59
2022/06/06 07:30:21;;;;;;;2.15;1.95;;;;;;;-142.25;100.00;58004.16;5009471;28;20076;-60
2022/06/06 07:34:15;;;;;;;2.33;2.10;;;;;;;-142.25;100.00;58004.16;5013663;28;20509;-60
2022/06/06 07:38:11;;;;;;;2.45;1.85;;;;;;;-142.25;100.00;58004.16;5010022;28;20134;-60
2022/06/06 07:42:00;;;;;;;2.00;1.90;;;;;;;-142.25;100.00;58004.16;5008876;28;20121;-61
2022/06/06 07:45:29;;;;;;;2.45;2.08;;;;;;;-142.25;100.00;58004.16;5009775;28;20114;-59
2022/06/06 07:49:05;;;;;;;2.08;1.83;;;;;;;-142.25;100.00;58004.16;5013352;28;20044;-60
2022/06/06 07:52:45;;;;;;;2.35;1.83;;;;;;;-142.25;100.00;58004.16;5009224;28;20050;-59
2022/06/06 07:56:30;;;;;;;4.57;2.33;;;;;;;-142.25;100.00;58004.16;5008816;28;20030;-60
2022/06/06 08:00:25;;;;;;;2.00;1.90;;;;;;;-142.25;100.00;58004.16;5015765;28;20040;-61
2022/06/06 08:03:51;;;;;;;2.45;2.30;;;;;;;-142.25;100.00;58004.16;5009257;28;20030;-61
2022/06/06 08:07:27;;;;;;;2.92;2.15;;;;;;;-142.25;100.00;58004.16;5012039;28;20037;-61
2022/06/06 08:11:03;;;;;;;4.38;2.47;;;;;;;-142.25;100.00;58004.16;5008779;28;20049;-59
2022/06/06 08:14:48;;;;;;;2.35;2.22;;;;;;;-142.25;100.00;58004.16;5008789;28;20411;-61
2022/06/06 08:18:12;;;;;;;2.80;2.30;;;;;;;-142.25;100.00;58004.16;5013452;28;20495;-60
2022/06/06 08:21:46;;;;;;;2.20;2.10;;;;;;;-142.25;100.00;58004.16;5009775;28;20038;-60
2022/06/06 08:25:15;;;;;;;1.95;1.85;;;;;;;-142.25;100.00;58004.16;5009213;28;20034;-60
2022/06/06 08:28:49;;;;;;;2.05;1.80;;;;;;;-142.25;100.00;58004.16;5013278;28;20118;-60
2022/06/06 08:32:13;;;;;;;2.70;2.28;;;;;;;-142.25;100.00;58004.16;5009469;28;20037;-61
2022/06/06 08:35:49;;;;;;;2.58;1.77;;;;;;;-142.25;100.00;58004.16;5007917;28;20060;-60
2022/06/06 08:39:35;;;;;;;2.47;2.28;;;;;;;-142.25;100.00;58004.16;5009771;28;20033;-59
2022/06/06 08:43:25;;;;;;;2.60;2.40;;;;;;;-142.25;100.00;58004.16;5012777;28;20034;-58
2022/06/06 08:47:07;;;;;;;3.58;2.15;;;;;;;-142.25;100.00;58004.16;5009260;28;20041;-59
2022/06/06 08:50:55;;;;;;;2.55;2.35;;;;;;;-142.25;100.00;58004.16;5008016;28;20623;-59
2022/06/06 08:54:21;;;;;;;2.47;2.35;;;;;;;-142.25;100.00;58004.16;5009220;28;20118;-60
2022/06/06 08:57:56;;;;;;;;;;;;;;;-142.25;100.00;58004.16;5010529;28;20148;-60
2022/06/06 09:02:10;;;;;;;7.88;2.42;;;;;;;-142.25;100.00;58004.16;5010537;28;19917;-60
2022/06/06 09:05:49;;;;;;;3.10;2.90;;;;;;;-142.25;100.00;58004.16;4936233;28;20042;-61
2022/06/06 09:09:40;;;;;;;2.60;2.47;;;;;;;-142.25;100.00;58004.16;4946423;28;20049;-60
2022/06/06 09:13:51;;;;;;;3.05;2.85;;;;;;;-142.25;100.00;58004.16;4949102;28;20118;-63
2022/06/06 09:17:38;;;;;;;3.88;2.10;;;;;;;-142.25;100.00;58004.16;4948802;28;20158;-61
2022/06/06 09:21:20;;;;;;;2.60;2.40;;;;;;;-142.25;100.00;58004.16;4947108;28;20393;-62
2022/06/06 09:25:06;;;;;;;2.88;2.42;;;;;;;-142.25;100.00;58004.16;4945979;28;20457;-60
2022/06/06 09:28:45;;;;;;;2.60;2.50;;;;;;;-142.25;100.00;58004.16;4947673;28;20595;-61
2022/06/06 09:32:30;;;;;;;2.65;2.45;;;;;;;-142.25;100.00;58004.16;4949963;28;20045;-62
2022/06/06 09:36:00;;;;;;;2.83;2.63;;;;;;;-142.25;100.00;58004.16;4945820;28;20054;-61
2022/06/06 09:39:48;;;;;;;2.70;2.60;;;;;;;-142.25;100.00;58004.16;4951575;28;20129;-63
2022/06/06 09:43:32;;;;;;;2.80;2.60;;;;;;;-142.25;100.00;58004.16;4951461;28;20059;-63
2022/06/06 09:47:49;;;;;;;2.70;2.50;;;;;;;-142.25;100.00;58004.16;4952653;28;20110;-65
2022/06/06 09:51:47;;;;;;;10.43;3.05;;;;;;;-142.25;100.00;58004.16;4899177;29;20059;-63
2022/06/06 09:59:49;;;;;;;2.85;2.75;;;;;;;-142.25;100.00;58004.16;4903308;29;20042;-63
2022/06/06 10:03:48;;;;;;;3.05;2.85;;;;;;;-142.25;100.00;58004.16;4880213;29;20048;-62
2022/06/06 10:07:21;;;;;;;3.65;3.45;;;;;;;-142.25;100.00;58004.16;4901688;29;20523;-62
2022/06/06 10:11:17;;;;;;;3.17;2.97;;;;;;;-142.25;100.00;58004.16;4897899;29;20144;-66
2022/06/06 10:15:04;;;;;;;3.55;3.35;;;;;;;-142.25;100.00;58004.16;4896729;29;20052;-66
2022/06/06 10:18:46;;;;;;;2.88;2.67;;;;;;;-142.25;100.00;58004.16;4900025;29;20047;-65
2022/06/06 10:22:37;;;;;;;2.90;2.78;;;;;;;-142.25;100.00;58004.16;4931899;28;20078;-65
2022/06/06 10:26:20;;;;;;;3.38;2.70;;;;;;;-142.25;100.00;58004.16;4953584;28;20042;-65
2022/06/06 10:30:12;;;;;;;2.88;2.60;;;;;;;-142.25;100.00;58004.16;5011383;28;20041;-66
2022/06/06 10:33:54;;;;;;;3.28;2.92;;;;;;;-142.25;100.00;58004.16;5011891;28;20494;-66
2022/06/06 10:37:36;;;;;;;3.25;3.00;;;;;;;-142.25;100.00;58004.16;5014832;28;20128;-66
2022/06/06 10:41:25;;;;;;;5.90;4.10;;;;;;;-142.25;100.00;58004.16;5010448;28;20429;-65
2022/06/06 10:45:13;;;;;;;3.20;2.90;;;;;;;-142.25;100.00;58004.16;5013181;28;20069;-67
2022/06/06 10:49:44;;;;;;;2.88;2.65;;;;;;;-142.25;100.00;58004.16;5011506;28;20050;-66
2022/06/06 10:53:24;;;;;;;3.45;3.15;;;;;;;-142.25;100.00;58004.16;4918575;29;20123;-66
2022/06/06 10:56:53;;;;;;;2.78;2.58;;;;;;;-142.25;100.00;58004.16;4924402;29;20036;-66
2022/06/06 11:00:38;;;;;;;3.47;3.20;;;;;;;-142.25;100.00;58004.16;4918158;29;20040;-65
2022/06/06 11:04:17;;;;;;;3.40;3.20;;;;;;;-142.25;100.00;58004.16;4925064;29;20139;-67
2022/06/06 11:08:06;;;;;;;3.38;3.08;;;;;;;-142.25;100.00;58004.16;4920316;29;20065;-65
2022/06/06 11:11:39;;;;;;;2.70;2.60;;;;;;;-142.25;100.00;58004.16;4922395;29;20071;-68
2022/06/06 11:15:08;;;;;;;3.15;3.05;;;;;;;-142.25;100.00;58004.16;4923073;29;20106;-66
2022/06/06 11:19:00;;;;;;;3.50;3.30;;;;;;;-142.25;100.00;58004.16;4918477;29;20050;-66
2022/06/06 11:22:49;;;;;;;3.45;3.15;;;;;;;-142.25;100.00;58004.16;4923533;29;20043;-66
2022/06/06 11:26:40;;;;;;;2.92;2.72;;;;;;;-142.25;100.00;58004.16;5010617;28;20595;-66
2022/06/06 11:30:22;;;;;;;2.80;2.60;;;;;;;-142.25;100.00;58004.16;5012817;28;20041;-67
2022/06/06 11:34:23;;;;;;;3.38;3.17;;;;;;;-142.25;100.00;58004.16;5014456;28;20152;-66
2022/06/06 11:37:48;;;;;;;3.13;2.80;;;;;;;-142.25;100.00;58004.16;4991226;28;20472;-66
2022/06/06 11:41:22;;;;;;;2.78;2.60;;;;;;;-142.25;100.00;58004.16;5014472;28;20033;-65
2022/06/06 11:44:53;;;;;;;3.30;3.10;;;;;;;-142.25;100.00;58004.16;5010347;28;20033;-64
2022/06/06 11:48:53;;;;;;;3.65;3.45;;;;;;;-142.25;100.00;58004.16;5010570;28;20060;-63
2022/06/06 11:52:38;;;;;;;3.63;3.33;;;;;;;-142.25;100.00;58004.16;5013763;28;20051;-62
2022/06/06 11:56:04;;;;;;;3.70;3.40;;;;;;;-142.25;100.00;58004.16;5010107;28;20037;-61
2022/06/06 11:59:23;;;;;;;;;;;;;;;-142.25;100.00;58004.16;5011148;28;20049;-61
2022/06/06 12:03:02;;;;;;;3.20;3.00;;;;;;;-142.25;100.00;58004.16;5010052;28;19937;-61
2022/06/06 12:06:50;;;;;;;3.70;3.47;;;;;;;-142.25;100.00;58004.16;5009080;28;20132;-60
2022/06/06 12:10:12;;;;;;;3.05;2.85;;;;;;;-142.25;100.00;58004.16;5010412;28;20041;-60
2022/06/06 12:14:02;;;;;;;3.40;3.20;;;;;;;-142.25;100.00;58004.16;5009058;28;20484;-60
2022/06/06 12:17:51;;;;;;;2.42;2.28;;;;;;;-142.25;100.00;58004.16;4993163;28;20852;-60
2022/06/06 12:21:11;;;;;;;3.88;3.53;;;;;;;-142.25;100.00;58004.16;5013980;28;20574;-59
2022/06/06 12:24:42;;;;;;;3.47;3.17;;;;;;;-142.25;100.00;58004.16;5008752;28;20045;-60
2022/06/06 12:28:09;;;;;;;4.18;3.88;;;;;;;-142.25;100.00;58004.16;5014709;28;20233;-60
2022/06/06 12:31:35;;;;;;;3.70;3.35;;;;;;;-142.25;100.00;58004.16;5011379;28;20038;-60
2022/06/06 12:35:04;;;;;;;2.88;2.60;;;;;;;-142.25;100.00;58004.16;5011042;28;20097;-61
2022/06/06 12:38:18;;;;;;;4.40;3.00;;;;;;;-142.25;100.00;58004.16;5014159;28;20036;-60
2022/06/06 12:41:24;;;;;;;2.67;2.58;;;;;;;-142.25;100.00;58004.16;5009872;28;20041;-59
2022/06/06 12:44:48;;;;;;;3.47;3.28;;;;;;;-142.25;100.00;58004.16;5008693;28;20082;-59
2022/06/06 12:47:55;;;;;;;3.10;2.90;;;;;;;-142.25;100.00;58004.16;5013093;28;20038;-60
2022/06/06 12:51:14;;;;;;;3.92;3.63;;;;;;;-142.25;100.00;58004.16;5007991;28;20041;-59
2022/06/06 12:54:30;;;;;;;3.78;3.58;;;;;;;-142.25;100.00;58004.16;5010522;28;20040;-60
2022/06/06 12:57:28;;;;;;;3.53;3.22;;;;;;;-142.25;100.00;58004.16;5011505;28;20033;-59
2022/06/06 13:04:10;;;;;;;3.75;3.45;;;;;;;-142.25;100.00;58004.16;5007460;28;20616;-60
2022/06/06 13:07:14;;;;;;;3.10;2.97;;;;;;;-142.25;100.00;58004.16;5006862;28;20052;-60
2022/06/06 13:10:12;;;;;;;3.08;2.97;;;;;;;-142.25;100.00;58004.16;5008481;28;20486;-60
2022/06/06 13:13:35;;;;;;;4.68;3.15;;;;;;;-142.25;100.00;58004.16;5009130;28;20637;-59
2022/06/06 13:16:13;;;;;;;5.78;3.28;;;;;;;-142.25;100.00;58004.16;4993427;28;20121;-60
2022/06/06 13:19:01;;;;;;;2.67;2.58;;;;;;;-142.25;100.00;58004.16;5008134;28;20037;-59
2022/06/06 13:21:42;;;;;;;3.20;2.95;;;;;;;-142.25;100.00;58004.16;5010364;28;20042;-60
2022/06/06 13:24:40;;;;;;;3.63;3.35;;;;;;;-142.25;100.00;58004.16;5011631;28;20760;-59
2022/06/06 13:27:40;;;;;;;3.25;2.88;;;;;;;-142.25;100.00;58004.16;5009888;28;20502;-59
2022/06/06 13:30:56;;;;;;;3.20;2.95;;;;;;;-142.25;100.00;58004.16;4996520;28;20152;-58
2022/06/06 13:34:03;;;;;;;3.40;3.20;;;;;;;-142.25;100.00;58004.16;5008111;28;20103;-59
2022/06/06 13:36:39;;;;;;;3.25;3.00;;;;;;;-142.25;100.00;58004.16;5009999;28;20099;-59
2022/06/06 13:39:16;;;;;;;3.60;3.40;;;;;;;-142.25;100.00;58004.16;5009026;28;20080;-59
2022/06/06 13:42:07;;;;;;;3.13;2.95;;;;;;;-142.25;100.00;58004.16;5012271;28;20490;-59
2022/06/06 13:45:00;;;;;;;3.60;3.50;;;;;;;-142.25;100.00;58004.16;5011364;28;20044;-60
2022/06/06 13:48:03;;;;;;;3.10;2.85;;;;;;;-142.25;100.00;58004.16;5008796;28;20308;-60
2022/06/06 13:50:47;;;;;;;3.35;3.05;;;;;;;-142.25;100.00;58004.16;4999042;28;20484;-60
2022/06/06 13:53:23;;;;;;;3.40;3.20;;;;;;;-142.25;100.00;58004.16;5011141;28;20033;-60
2022/06/06 13:56:08;;;;;;;3.45;3.33;;;;;;;-142.25;100.00;58004.16;5009593;28;20084;-60
2022/06/06 13:58:37;;;;;;;3.78;2.92;;;;;;;-142.25;100.00;58004.16;5008290;28;20075;-59
2022/06/06 14:01:24;;;;;;;3.47;3.17;;;;;;;-142.25;100.00;58004.16;5007562;28;20041;-59
2022/06/06 14:04:06;;;;;;;3.20;2.95;;;;;;;-142.25;100.00;58004.16;5008432;28;20033;-59
2022/06/06 14:07:03;;;;;;;3.20;3.00;;;;;;;-142.25;100.00;58004.16;4990240;28;20551;-59
2022/06/06 14:09:39;;;;;;;3.67;3.38;;;;;;;-142.25;100.00;58004.16;5011441;28;20046;-61
2022/06/06 14:12:30;;;;;;;3.50;3.28;;;;;;;-142.25;100.00;58004.16;5008329;28;20037;-59
2022/06/06 14:15:09;;;;;;;2.83;2.70;;;;;;;-142.25;100.00;58004.16;5006696;28;20091;-59
2022/06/06 14:17:37;;;;;;;3.33;3.13;;;;;;;-142.25;100.00;58004.16;5006379;28;20042;-59
2022/06/06 14:20:41;;;;;;;5.30;3.33;;;;;;;-142.25;100.00;58004.16;5010858;28;20064;-59
2022/06/06 14:23:32;;;;;;;3.47;3.20;;;;;;;-142.25;100.00;58004.16;4949095;28;20042;-59
2022/06/06 14:26:00;;;;;;;3.25;3.05;;;;;;;-142.25;100.00;58004.16;4948606;28;20062;-61
2022/06/06 14:28:32;;;;;;;3.45;3.25;;;;;;;-142.25;100.00;58004.16;4948992;28;20043;-61
2022/06/06 14:30:57;;;;;;;2.88;2.78;;;;;;;-142.25;100.00;58004.16;4949059;28;20182;-59
2022/06/06 14:33:29;;;;;;;3.20;3.00;;;;;;;-142.25;100.00;58004.16;4949978;28;20413;-59
2022/06/06 14:35:54;;;;;;;3.00;2.80;;;;;;;-142.25;100.00;58004.16;4957192;28;20059;-60
2022/06/06 14:38:26;;;;;;;4.22;2.70;;;;;;;-142.25;100.00;58004.16;4953765;28;20047;-59
2022/06/06 14:41:00;;;;;;;3.60;3.40;;;;;;;-142.25;100.00;58004.16;4950901;28;20094;-58
2022/06/06 14:43:28;;;;;;;3.33;3.00;;;;;;;-142.25;100.00;58004.16;4953895;28;20051;-58
2022/06/06 14:46:02;;;;;;;4.05;2.78;;;;;;;-142.25;100.00;58004.16;4956373;28;20042;-58
2022/06/06 14:48:34;;;;;;;3.07;2.97;;;;;;;-142.25;100.00;58004.16;4951378;28;20220;-59
2022/06/06 14:51:03;;;;;;;2.97;2.88;;;;;;;-142.25;100.00;58004.16;4952143;28;20101;-59
2022/06/06 14:53:50;;;;;;;3.08;2.97;;;;;;;-142.25;100.00;58004.16;4956321;28;20046;-59
2022/06/06 14:56:19;;;;;;;3.70;3.50;;;;;;;-142.25;100.00;58004.16;4964968;28;20072;-58
2022/06/06 14:58:57;;;;;;;3.60;3.30;;;;;;;-142.25;100.00;58004.16;5011453;28;20482;-59
2022/06/06 15:01:26;;;;;;;3.58;3.40;;;;;;;-142.25;100.00;58004.16;5010580;28;20118;-59
2022/06/06 15:03:55;;;;;;;2.85;2.65;;;;;;;-142.25;100.00;58004.16;5011358;28;20439;-59
2022/06/06 15:06:27;;;;;;;4.05;3.35;;;;;;;-142.25;100.00;58004.16;5012055;28;20029;-59
2022/06/06 15:08:58;;;;;;;3.40;3.10;;;;;;;-142.25;100.00;58004.16;5024595;28;20546;-58
2022/06/06 15:11:26;;;;;;;3.97;3.50;;;;;;;-142.25;100.00;58004.16;5014051;28;20044;-58
2022/06/06 15:13:57;;;;;;;3.55;3.25;;;;;;;-142.25;100.00;58004.16;5015424;28;20442;-58
2022/06/06 15:16:28;;;;;;;2.88;2.67;;;;;;;-142.25;100.00;58004.16;5012115;28;20036;-58
2022/06/06 15:18:58;;;;;;;3.58;3.28;;;;;;;-142.25;100.00;58004.16;5010836;28;20038;-59
2022/06/06 15:21:27;;;;;;;2.83;2.72;;;;;;;-142.25;100.00;58004.16;5013789;28;20040;-58
2022/06/06 15:23:55;;;;;;;3.08;2.97;;;;;;;-142.25;100.00;58004.16;5015231;28;20037;-58
2022/06/06 15:26:32;;;;;;;2.50;2.40;;;;;;;-142.25;100.00;58004.16;5010942;28;20200;-58
2022/06/06 15:29:16;;;;;;;2.63;2.53;;;;;;;-142.25;100.00;58004.16;5010433;28;20380;-59
2022/06/06 15:32:12;;;;;;;2.50;2.40;;;;;;;-142.25;100.00;58004.16;5014187;28;20037;-58